Time;durP1;ratioP1;P1;durP2;ratioP2;P2;SDS_P1;SDS_P2;PMS_P1;PMS_P2;Temp;Humidity;BMP_temperature;BMP_pressure;BME280_temperature;BME280_humidity;BME280_pressure;Samples;Min_cycle;Max_cycle;Signal;HPM_P1;HPM_P2
2023/08/22 00:01:39;;;;;;;13.55;12.52;;;;;;;21.66;100.00;99608.69;5086600;28;20265;-82
2023/08/22 00:04:07;;;;;;;14.25;12.95;;;;;;;21.67;100.00;99606.78;5087041;28;20195;-83
2023/08/22 00:06:35;;;;;;;12.82;11.82;;;;;;;21.67;100.00;99602.16;5101163;27;20204;-83
2023/08/22 00:09:03;;;;;;;13.10;11.90;;;;;;;21.63;100.00;99609.28;5094642;28;20209;-80
2023/08/22 00:11:31;;;;;;;13.48;12.07;;;;;;;21.60;100.00;99611.81;5094136;28;20197;-82
2023/08/22 00:13:58;;;;;;;13.75;12.50;;;;;;;21.55;100.00;99603.69;5090694;28;20196;-81
2023/08/22 00:16:26;;;;;;;14.98;13.75;;;;;;;21.56;100.00;99610.78;5098754;28;20694;-82
2023/08/22 00:18:54;;;;;;;15.10;13.70;;;;;;;21.55;100.00;99609.13;5091501;28;20721;-82
2023/08/22 00:21:23;;;;;;;14.75;13.35;;;;;;;21.51;100.00;99609.69;5082666;28;20209;-83
2023/08/22 00:23:51;;;;;;;14.38;13.18;;;;;;;21.50;100.00;99607.28;5091777;28;20224;-82
2023/08/22 00:26:18;;;;;;;14.10;12.98;;;;;;;21.49;100.00;99602.94;5090478;28;20176;-81
2023/08/22 00:28:46;;;;;;;14.60;13.38;;;;;;;21.51;100.00;99604.25;5101267;28;20677;-81
2023/08/22 00:31:15;;;;;;;14.82;13.63;;;;;;;21.51;100.00;99606.16;5102034;28;20202;-81
2023/08/22 00:33:43;;;;;;;14.70;13.50;;;;;;;21.44;100.00;99611.16;5104279;28;20302;-81
2023/08/22 00:36:11;;;;;;;14.32;13.05;;;;;;;21.35;100.00;99613.72;5103096;28;20184;-83
2023/08/22 00:38:39;;;;;;;14.05;12.88;;;;;;;21.29;100.00;99606.72;5103882;28;20675;-81
2023/08/22 00:41:06;;;;;;;14.55;13.32;;;;;;;21.29;100.00;99609.44;5103984;28;20196;-81
2023/08/22 00:43:34;;;;;;;14.23;12.93;;;;;;;21.25;100.00;99608.41;5098874;28;20610;-81
2023/08/22 00:46:02;;;;;;;14.93;13.57;;;;;;;21.20;100.00;99611.16;5094810;28;20196;-83
2023/08/22 00:48:29;;;;;;;14.18;13.15;;;;;;;21.17;100.00;99610.94;5095090;28;20247;-83
2023/08/22 00:50:57;;;;;;;14.38;13.10;;;;;;;21.10;100.00;99603.06;5091118;28;20213;-83
2023/08/22 00:53:25;;;;;;;13.48;12.48;;;;;;;21.08;100.00;99597.13;5075724;28;20215;-85
2023/08/22 00:55:53;;;;;;;14.50;13.40;;;;;;;21.00;100.00;99598.53;5093488;28;20351;-84
2023/08/22 00:58:20;;;;;;;15.18;13.98;;;;;;;20.97;100.00;99599.13;5089387;28;20186;-81
2023/08/22 01:00:48;;;;;;;15.10;13.57;;;;;;;20.90;100.00;99601.38;5090637;28;20200;-81
2023/08/22 01:03:16;;;;;;;15.00;13.80;;;;;;;20.85;100.00;99601.44;5086941;28;20196;-81
2023/08/22 01:05:50;;;;;;;14.68;13.32;;;;;;;20.84;100.00;99602.53;5085993;28;20203;-82
2023/08/22 01:08:22;;;;;;;15.20;13.75;;;;;;;20.83;100.00;99600.91;5066484;28;20229;-81
2023/08/22 01:10:53;;;;;;;15.15;13.85;;;;;;;20.82;100.00;99599.28;5092192;28;20667;-81
2023/08/22 01:13:33;;;;;;;14.13;12.85;;;;;;;20.78;100.00;99603.69;5089397;28;20287;-82
2023/08/22 01:16:01;;;;;;;15.52;14.30;;;;;;;20.77;100.00;99596.59;5104571;28;20210;-81
2023/08/22 01:18:30;;;;;;;14.73;13.63;;;;;;;20.68;100.00;99598.31;5094206;28;20192;-82
2023/08/22 01:21:06;;;;;;;14.55;13.35;;;;;;;20.67;100.00;99599.41;5097028;28;20210;-82
2023/08/22 01:23:33;;;;;;;14.32;13.20;;;;;;;20.66;100.00;99589.66;5099620;28;20629;-81
2023/08/22 01:26:01;;;;;;;14.48;13.18;;;;;;;20.65;100.00;99588.84;5096095;28;20199;-81
2023/08/22 01:28:50;;;;;;;15.07;13.77;;;;;;;20.66;100.00;99584.22;5091690;28;20185;-81
2023/08/22 01:31:30;;;;;;;14.75;13.48;;;;;;;20.63;100.00;99582.84;5082441;28;20577;-82
2023/08/22 01:34:02;;;;;;;15.40;14.05;;;;;;;20.53;100.00;99587.59;5090359;28;20231;-82
2023/08/22 01:36:30;;;;;;;15.38;14.07;;;;;;;20.51;100.00;99589.78;5092347;28;20291;-81
2023/08/22 01:39:04;;;;;;;14.48;13.38;;;;;;;20.49;100.00;99592.78;5089052;28;20196;-82
2023/08/22 01:41:32;;;;;;;15.07;13.85;;;;;;;20.47;100.00;99592.28;5072327;28;20207;-82
2023/08/22 01:44:01;;;;;;;15.25;13.98;;;;;;;20.44;100.00;99600.16;5092661;28;20205;-82
2023/08/22 01:46:30;;;;;;;15.02;13.82;;;;;;;20.43;100.00;99593.13;5085685;28;20195;-81
2023/08/22 01:48:58;;;;;;;14.93;13.73;;;;;;;20.42;100.00;99599.66;5088592;28;20238;-80
2023/08/22 01:51:29;;;;;;;15.32;14.13;;;;;;;20.42;100.00;99608.63;5086958;28;20194;-82
2023/08/22 01:53:57;;;;;;;15.13;13.93;;;;;;;20.38;100.00;99595.88;5065125;28;20191;-81
2023/08/22 01:56:26;;;;;;;15.15;13.95;;;;;;;20.36;100.00;99606.22;5098029;28;20212;-82
2023/08/22 01:58:53;;;;;;;15.57;14.25;;;;;;;20.35;100.00;99610.03;5091050;28;20192;-82
2023/08/22 02:01:22;;;;;;;15.30;14.10;;;;;;;20.35;100.00;99604.59;5092716;28;20245;-82
2023/08/22 02:03:49;;;;;;;14.73;13.52;;;;;;;20.32;100.00;99603.25;5092784;28;20207;-81
2023/08/22 02:06:17;;;;;;;14.77;13.55;;;;;;;20.31;100.00;99607.06;5092540;28;20666;-82
2023/08/22 02:08:45;;;;;;;14.63;13.43;;;;;;;20.29;100.00;99606.53;5091432;28;20208;-81
2023/08/22 02:11:13;;;;;;;15.23;14.02;;;;;;;20.28;100.00;99606.81;5089421;28;20639;-82
2023/08/22 02:13:42;;;;;;;14.88;13.48;;;;;;;20.25;100.00;99610.88;5090918;28;20199;-81
2023/08/22 02:16:10;;;;;;;15.32;14.05;;;;;;;20.26;100.00;99607.09;5090693;28;20254;-82
2023/08/22 02:18:37;;;;;;;14.95;13.68;;;;;;;20.27;100.00;99608.72;5096145;28;20798;-84
2023/08/22 02:21:04;;;;;;;14.43;13.18;;;;;;;20.26;100.00;99598.91;5083982;28;20281;-82
2023/08/22 02:23:36;;;;;;;14.65;13.35;;;;;;;20.22;100.00;99606.03;5073176;28;20253;-81
2023/08/22 02:26:04;;;;;;;15.07;13.82;;;;;;;20.16;100.00;99602.53;5092423;28;20187;-86
2023/08/22 02:28:33;;;;;;;15.00;13.70;;;;;;;20.11;100.00;99597.13;5088804;28;20243;-82
2023/08/22 02:31:02;;;;;;;14.68;13.38;;;;;;;20.06;100.00;99594.44;5087334;28;20630;-82
2023/08/22 02:33:29;;;;;;;15.18;13.63;;;;;;;20.03;100.00;99603.16;5090490;28;20314;-82
2023/08/22 02:35:59;;;;;;;14.98;13.63;;;;;;;20.00;100.00;99598.31;5086870;28;20325;-82
2023/08/22 02:38:27;;;;;;;15.15;13.80;;;;;;;19.99;100.00;99598.56;5089094;28;20627;-82
2023/08/22 02:40:55;;;;;;;14.48;13.18;;;;;;;19.94;100.00;99604.84;5091756;28;20207;-82
2023/08/22 02:43:23;;;;;;;14.25;13.15;;;;;;;19.90;100.00;99603.78;5087885;28;20692;-82
2023/08/22 02:45:51;;;;;;;14.88;13.57;;;;;;;19.86;100.00;99605.44;5090788;28;20201;-83
2023/08/22 02:48:18;;;;;;;14.83;13.63;;;;;;;19.78;100.00;99606.06;5078868;28;20203;-82
2023/08/22 02:50:49;;;;;;;14.73;13.48;;;;;;;19.75;100.00;99607.41;5073619;28;20323;-82
2023/08/22 02:53:18;;;;;;;14.00;13.00;;;;;;;19.72;100.00;99601.72;5076840;28;20196;-82
2023/08/22 02:55:48;;;;;;;14.43;13.23;;;;;;;19.73;100.00;99603.34;5094628;28;20200;-82
2023/08/22 02:58:17;;;;;;;15.00;13.63;;;;;;;19.72;100.00;99607.16;5090709;28;20200;-82
2023/08/22 03:00:46;;;;;;;14.17;13.03;;;;;;;19.68;100.00;99604.19;5094548;28;20317;-82
2023/08/22 03:03:15;;;;;;;15.50;14.20;;;;;;;19.65;100.00;99607.47;5076871;28;20269;-82
2023/08/22 03:05:44;;;;;;;14.33;13.23;;;;;;;19.61;100.00;99598.25;5084657;28;20206;-84
2023/08/22 03:08:11;;;;;;;14.47;13.33;;;;;;;19.63;100.00;99603.41;5084124;28;20197;-82
2023/08/22 03:10:40;;;;;;;14.77;13.43;;;;;;;19.58;100.00;99598.00;5090306;28;20641;-83
2023/08/22 03:13:09;;;;;;;14.73;13.50;;;;;;;19.58;100.00;99603.44;5071553;28;20215;-83
2023/08/22 03:15:37;;;;;;;13.70;12.67;;;;;;;19.57;100.00;99599.06;5069508;28;20726;-82
2023/08/22 03:18:06;;;;;;;14.63;13.37;;;;;;;19.54;100.00;99597.75;5098575;28;20206;-85
2023/08/22 03:20:37;;;;;;;14.33;13.13;;;;;;;19.53;100.00;99601.53;5071390;28;20193;-89
2023/08/22 03:23:05;;;;;;;14.70;13.40;;;;;;;19.46;100.00;99603.75;5089395;28;20688;-84
2023/08/22 03:25:33;;;;;;;15.40;14.00;;;;;;;19.48;100.00;99603.47;5095893;28;20207;-83
2023/08/22 03:28:01;;;;;;;15.00;13.60;;;;;;;19.47;100.00;99599.94;5094032;28;20196;-82
2023/08/22 03:30:29;;;;;;;14.85;13.55;;;;;;;19.46;100.00;99605.63;5100847;28;20659;-86
2023/08/22 03:33:00;;;;;;;14.93;13.80;;;;;;;19.45;100.00;99609.47;5083879;28;20318;-82
2023/08/22 03:35:28;;;;;;;13.83;12.80;;;;;;;19.44;100.00;99611.38;5073842;28;20197;-82
2023/08/22 03:37:57;;;;;;;14.17;12.97;;;;;;;19.42;100.00;99599.91;5077694;28;20208;-82
2023/08/22 03:40:26;;;;;;;14.50;13.15;;;;;;;19.43;100.00;99606.16;5081616;28;20694;-82
2023/08/22 03:42:55;;;;;;;14.43;13.27;;;;;;;19.42;100.00;99608.06;5091365;28;20202;-82
2023/08/22 03:45:22;;;;;;;13.37;12.27;;;;;;;19.38;100.00;99612.44;5092589;28;20219;-82
2023/08/22 03:47:51;;;;;;;13.47;12.27;;;;;;;19.33;100.00;99620.59;5094517;28;20184;-82
2023/08/22 03:50:19;;;;;;;14.30;13.20;;;;;;;19.28;100.00;99612.47;5093900;28;20306;-82
2023/08/22 03:52:46;;;;;;;14.40;12.97;;;;;;;19.24;100.00;99624.97;5078460;28;20199;-83
2023/08/22 03:55:15;;;;;;;14.43;13.13;;;;;;;19.24;100.00;99631.22;5094502;28;20658;-82
2023/08/22 03:57:43;;;;;;;14.80;13.50;;;;;;;19.24;100.00;99633.13;5093513;28;20207;-83
2023/08/22 04:00:11;;;;;;;13.93;12.70;;;;;;;19.24;100.00;99635.84;5095225;28;20294;-84
2023/08/22 04:02:46;;;;;;;14.20;12.83;;;;;;;19.25;100.00;99634.75;5093216;28;20204;-82
2023/08/22 04:05:14;;;;;;;14.07;12.90;;;;;;;19.24;100.00;99644.81;5062181;28;20576;-83
2023/08/22 04:07:41;;;;;;;13.97;12.87;;;;;;;19.22;100.00;99635.31;5079390;28;20252;-82
2023/08/22 04:10:11;;;;;;;14.73;13.43;;;;;;;19.23;100.00;99636.94;5077431;28;20246;-82
2023/08/22 04:12:40;;;;;;;14.70;13.30;;;;;;;19.26;100.00;99636.41;5092853;28;20204;-82
2023/08/22 04:15:09;;;;;;;13.47;12.47;;;;;;;19.25;100.00;99638.28;5092754;28;20194;-82
2023/08/22 04:17:38;;;;;;;13.77;12.57;;;;;;;19.28;100.00;99640.44;5075021;28;20188;-83
2023/08/22 04:20:09;;;;;;;14.07;12.97;;;;;;;19.31;100.00;99637.19;5100074;28;20221;-84
2023/08/22 04:22:42;;;;;;;12.97;11.97;;;;;;;19.30;100.00;99634.75;5091398;28;20196;-83
2023/08/22 04:25:10;;;;;;;13.50;12.47;;;;;;;19.31;100.00;99639.09;5086524;28;20204;-82
2023/08/22 04:27:40;;;;;;;14.37;13.17;;;;;;;19.37;100.00;99637.97;5104086;27;20197;-83
2023/08/22 04:30:13;;;;;;;14.00;12.80;;;;;;;19.40;100.00;99639.34;5080342;28;20234;-82
2023/08/22 04:32:40;;;;;;;13.57;12.33;;;;;;;19.47;100.00;99637.16;5062572;28;20198;-82
2023/08/22 04:35:11;;;;;;;13.80;12.70;;;;;;;19.52;100.00;99635.25;5082011;28;20196;-82
2023/08/22 04:37:41;;;;;;;13.57;12.37;;;;;;;19.57;100.00;99632.50;5079833;28;20202;-82
2023/08/22 04:40:10;;;;;;;13.30;12.27;;;;;;;19.66;100.00;99638.97;5097036;28;20200;-83
2023/08/22 04:42:58;;;;;;;14.00;12.90;;;;;;;19.79;100.00;99638.38;5078495;28;20211;-90
2023/08/22 04:45:26;;;;;;;13.83;12.63;;;;;;;19.92;100.00;99641.59;5083872;28;20195;-83
2023/08/22 04:47:53;;;;;;;13.70;12.43;;;;;;;20.04;100.00;99639.34;5093445;28;20193;-83
2023/08/22 04:50:21;;;;;;;13.00;11.80;;;;;;;20.17;100.00;99636.78;5090531;28;20292;-82
2023/08/22 04:52:49;;;;;;;14.23;12.93;;;;;;;20.32;100.00;99645.97;5086528;28;20185;-86
2023/08/22 04:55:18;;;;;;;13.55;12.20;;;;;;;20.44;100.00;99643.69;5056847;28;20216;-83
2023/08/22 04:57:47;;;;;;;13.03;11.97;;;;;;;20.55;100.00;99642.53;5074306;28;20199;-82
2023/08/22 05:00:16;;;;;;;13.48;12.10;;;;;;;20.67;100.00;99643.78;5083841;28;20286;-82
2023/08/22 05:02:44;;;;;;;13.70;12.57;;;;;;;20.80;100.00;99638.81;5089356;28;20646;-82
2023/08/22 05:05:11;;;;;;;14.02;12.68;;;;;;;20.92;100.00;99644.66;5079534;28;20207;-82
2023/08/22 05:07:41;;;;;;;12.98;11.98;;;;;;;21.02;100.00;99637.22;5094497;28;20228;-83
2023/08/22 05:10:10;;;;;;;13.45;12.25;;;;;;;21.18;100.00;99645.28;5096333;28;20208;-83
2023/08/22 05:12:39;;;;;;;13.73;12.52;;;;;;;21.32;100.00;99649.72;5101597;28;20252;-84
2023/08/22 05:15:10;;;;;;;13.38;12.18;;;;;;;21.43;100.00;99634.88;5073097;28;21104;-83
2023/08/22 05:17:38;;;;;;;13.40;12.15;;;;;;;21.57;100.00;99634.16;5101065;28;20219;-88
2023/08/22 05:20:13;;;;;;;13.45;12.27;;;;;;;21.72;100.00;99639.44;5067069;28;20208;-82
2023/08/22 05:22:43;;;;;;;13.70;12.57;;;;;;;21.86;100.00;99645.81;5084258;28;20266;-82
2023/08/22 05:25:10;;;;;;;13.35;12.30;;;;;;;22.02;100.00;99643.72;5091157;28;20206;-87
2023/08/22 05:27:39;;;;;;;13.52;12.32;;;;;;;22.12;100.00;99635.38;5090613;28;20698;-89
2023/08/22 05:30:07;;;;;;;13.35;12.35;;;;;;;22.27;100.00;99637.88;5086149;28;20303;-81
2023/08/22 05:32:36;;;;;;;13.77;12.38;;;;;;;22.41;100.00;99652.41;5086282;28;20193;-82
2023/08/22 05:35:04;;;;;;;14.05;12.75;;;;;;;22.54;100.00;99645.38;5086448;28;20286;-82
2023/08/22 05:37:32;;;;;;;14.05;12.70;;;;;;;22.68;100.00;99647.03;5094796;28;20194;-81
2023/08/22 05:39:59;;;;;;;12.85;11.82;;;;;;;22.82;100.00;99642.47;5066955;28;20201;-83
2023/08/22 05:42:27;;;;;;;12.48;11.57;;;;;;;22.98;100.00;99644.94;5091412;28;20195;-81
2023/08/22 05:44:54;;;;;;;13.27;12.23;;;;;;;23.12;100.00;99632.09;5094232;28;20204;-82
2023/08/22 05:47:23;;;;;;;12.32;11.43;;;;;;;23.26;100.00;99639.19;5085282;28;20208;-82
2023/08/22 05:49:52;;;;;;;12.70;11.63;;;;;;;23.42;100.00;99639.72;5084853;28;20248;-83
2023/08/22 05:52:20;;;;;;;12.45;11.43;;;;;;;23.56;100.00;99643.28;5066112;28;20192;-81
2023/08/22 05:54:47;;;;;;;12.15;11.15;;;;;;;23.68;100.00;99640.84;5093463;28;20194;-82
2023/08/22 05:57:16;;;;;;;12.70;11.52;;;;;;;23.84;100.00;99641.34;5074770;28;20293;-81
2023/08/22 05:59:45;;;;;;;12.73;11.68;;;;;;;23.95;100.00;99648.19;5089138;28;20212;-81
2023/08/22 06:02:12;;;;;;;14.65;11.65;;;;;;;24.06;100.00;99646.88;5076241;28;20680;-86
2023/08/22 06:04:40;;;;;;;12.38;10.98;;;;;;;24.21;100.00;99648.47;5095474;28;20287;-84
2023/08/22 06:07:07;;;;;;;12.27;11.05;;;;;;;24.34;100.00;99653.09;5090692;28;20273;-80
2023/08/22 06:09:35;;;;;;;12.10;10.75;;;;;;;24.43;100.00;99645.75;5097856;28;20194;-80
2023/08/22 06:12:05;;;;;;;11.90;10.88;;;;;;;24.56;100.00;99646.81;5093896;28;20196;-81
2023/08/22 06:14:33;;;;;;;12.32;11.20;;;;;;;24.68;100.00;99638.06;5088465;28;20627;-80
2023/08/22 06:17:02;;;;;;;11.95;10.85;;;;;;;24.80;100.00;99646.50;5092941;28;20204;-82
2023/08/22 06:19:32;;;;;;;11.95;10.93;;;;;;;24.94;100.00;99645.34;5091991;28;20192;-81
2023/08/22 06:22:00;;;;;;;11.48;10.57;;;;;;;25.06;100.00;99632.97;5096240;28;20717;-80
2023/08/22 06:24:27;;;;;;;11.50;10.60;;;;;;;25.14;100.00;99645.91;5074528;28;20721;-80
2023/08/22 06:26:54;;;;;;;10.95;9.82;;;;;;;25.28;100.00;99639.22;5102253;28;20282;-81
2023/08/22 06:29:22;;;;;;;11.15;10.25;;;;;;;25.41;100.00;99638.28;5092092;28;20287;-82
2023/08/22 06:31:49;;;;;;;11.77;10.68;;;;;;;25.59;100.00;99632.88;5095628;28;20306;-80
2023/08/22 06:34:17;;;;;;;11.35;10.35;;;;;;;25.70;100.00;99624.06;5090310;28;20236;-80
2023/08/22 06:36:46;;;;;;;11.13;10.15;;;;;;;25.80;100.00;99628.44;5099210;28;20196;-80
2023/08/22 06:39:13;;;;;;;11.88;10.88;;;;;;;25.87;100.00;99626.00;5083672;28;20197;-81
2023/08/22 06:41:41;;;;;;;11.75;10.60;;;;;;;26.00;100.00;99627.81;5090729;28;20188;-80
2023/08/22 06:44:10;;;;;;;11.32;10.35;;;;;;;26.08;100.00;99621.50;5090611;28;20200;-80
2023/08/22 06:46:39;;;;;;;11.68;10.55;;;;;;;26.27;100.00;99623.97;5096368;28;20187;-80
2023/08/22 06:49:07;;;;;;;12.40;10.63;;;;;;;26.37;100.00;99622.84;5100450;28;20765;-82
2023/08/22 06:51:35;;;;;;;11.88;10.68;;;;;;;26.48;100.00;99624.94;5089678;28;20219;-85
2023/08/22 06:54:02;;;;;;;10.88;9.93;;;;;;;26.49;100.00;99621.06;5093144;28;20654;-80
2023/08/22 06:56:29;;;;;;;11.50;10.60;;;;;;;26.40;100.00;99619.47;5090446;28;20617;-80
2023/08/22 06:58:57;;;;;;;11.40;10.40;;;;;;;26.41;100.00;99613.63;5085765;28;20204;-80
2023/08/22 07:01:24;;;;;;;11.93;10.73;;;;;;;26.57;100.00;99616.69;5094119;28;20213;-80
2023/08/22 07:03:51;;;;;;;11.32;9.95;;;;;;;26.69;100.00;99616.81;5092267;28;20523;-80
2023/08/22 07:06:33;;;;;;;11.65;10.63;;;;;;;26.84;100.00;99615.50;5094579;28;20198;-80
2023/08/22 07:09:01;;;;;;;11.57;10.43;;;;;;;26.92;100.00;99609.22;5096294;28;20193;-80
2023/08/22 07:11:30;;;;;;;11.68;10.57;;;;;;;27.08;100.00;99605.59;5091206;28;20209;-80
2023/08/22 07:13:57;;;;;;;10.85;9.88;;;;;;;27.22;100.00;99613.63;5089848;28;20219;-80
2023/08/22 07:16:26;;;;;;;10.95;10.15;;;;;;;27.37;100.00;99615.00;5090373;28;20208;-80
2023/08/22 07:18:55;;;;;;;11.40;10.40;;;;;;;27.52;100.00;99615.31;5092592;28;20196;-80
2023/08/22 07:21:24;;;;;;;11.57;10.43;;;;;;;27.59;100.00;99607.31;5094553;28;20192;-79
2023/08/22 07:23:51;;;;;;;11.20;10.13;;;;;;;27.73;100.00;99618.06;5090260;28;20246;-80
2023/08/22 07:26:19;;;;;;;11.50;10.40;;;;;;;27.90;100.00;99612.44;5098380;28;20250;-81
2023/08/22 07:28:45;;;;;;;11.57;10.50;;;;;;;28.01;100.00;99616.44;5096033;28;20184;-81
2023/08/22 07:31:13;;;;;;;11.07;10.10;;;;;;;28.05;100.00;99608.28;5091002;28;20216;-80
2023/08/22 07:33:41;;;;;;;10.93;9.98;;;;;;;28.13;100.00;99612.97;5100475;28;20228;-81
2023/08/22 07:36:20;;;;;;;14.07;10.75;;;;;;;28.21;100.00;99614.03;5095072;28;20200;-80
2023/08/22 07:38:47;;;;;;;12.45;11.15;;;;;;;28.24;100.00;99607.84;5094059;28;20207;-81
2023/08/22 07:41:16;;;;;;;11.82;10.80;;;;;;;28.35;100.00;99615.38;5094972;28;20200;-80
2023/08/22 07:43:45;;;;;;;12.10;10.50;;;;;;;28.44;100.00;99601.53;5100536;28;20724;-80
2023/08/22 07:46:12;;;;;;;11.20;10.20;;;;;;;28.54;100.00;99611.31;5097634;28;20278;-80
2023/08/22 07:48:40;;;;;;;11.23;10.18;;;;;;;28.58;100.00;99613.06;5089161;28;20628;-84
2023/08/22 07:51:07;;;;;;;11.60;10.35;;;;;;;28.60;100.00;99612.72;5096732;28;20217;-81
2023/08/22 07:53:35;;;;;;;11.25;10.15;;;;;;;28.64;100.00;99610.91;5091377;28;20187;-80
2023/08/22 07:56:04;;;;;;;11.32;10.23;;;;;;;28.76;100.00;99610.94;5099340;28;20200;-80
2023/08/22 07:58:34;;;;;;;11.55;10.38;;;;;;;28.85;100.00;99611.66;5096173;28;20270;-81
2023/08/22 08:01:04;;;;;;;10.98;9.90;;;;;;;29.02;100.00;99607.94;5102928;28;20208;-81
2023/08/22 08:03:34;;;;;;;10.95;10.05;;;;;;;29.06;100.00;99609.66;5097940;28;20212;-82
2023/08/22 08:06:04;;;;;;;11.80;9.68;;;;;;;29.16;100.00;99611.94;5093685;28;20249;-86
2023/08/22 08:08:31;;;;;;;10.85;9.75;;;;;;;29.25;100.00;99611.84;5094575;28;20253;-81
2023/08/22 08:10:58;;;;;;;12.38;9.43;;;;;;;29.29;100.00;99607.25;5095415;28;20218;-82
2023/08/22 08:13:26;;;;;;;10.73;9.38;;;;;;;29.39;100.00;99608.78;5094335;28;20200;-82
2023/08/22 08:15:55;;;;;;;10.10;9.27;;;;;;;29.46;100.00;99607.06;5094508;28;20288;-81
2023/08/22 08:18:34;;;;;;;10.70;9.60;;;;;;;29.61;100.00;99600.03;5096082;28;20207;-82
2023/08/22 08:21:02;;;;;;;9.93;9.07;;;;;;;29.71;100.00;99600.38;5101950;28;20199;-82
2023/08/22 08:23:30;;;;;;;10.15;9.18;;;;;;;29.79;100.00;99598.63;5094923;28;20219;-83
2023/08/22 08:25:58;;;;;;;9.88;9.00;;;;;;;29.82;100.00;99594.34;5090214;28;20192;-81
2023/08/22 08:28:26;;;;;;;10.07;9.18;;;;;;;29.91;100.00;99604.16;5094716;28;20207;-80
2023/08/22 08:30:54;;;;;;;9.65;8.70;;;;;;;30.02;100.00;99591.47;5095150;28;20207;-82
2023/08/22 08:33:23;;;;;;;9.82;8.85;;;;;;;30.15;100.00;99590.28;5093623;28;20231;-83
2023/08/22 08:35:51;;;;;;;10.00;8.65;;;;;;;30.27;100.00;99594.16;5093943;28;20193;-82
2023/08/22 08:38:19;;;;;;;11.40;9.02;;;;;;;30.43;100.00;99593.03;5093947;28;20196;-82
2023/08/22 08:40:48;;;;;;;9.68;8.77;;;;;;;30.45;100.00;99593.53;5094172;28;20224;-82
2023/08/22 08:43:18;;;;;;;10.40;9.40;;;;;;;30.55;100.00;99595.00;5092943;28;20321;-81
2023/08/22 08:45:45;;;;;;;9.90;9.05;;;;;;;30.56;100.00;99589.09;5085263;28;20192;-82
2023/08/22 08:48:12;;;;;;;9.27;8.48;;;;;;;30.61;100.00;99588.03;5085134;28;20200;-87
2023/08/22 08:50:40;;;;;;;9.68;8.73;;;;;;;30.68;100.00;99587.44;5085560;28;20217;-90
2023/08/22 08:53:08;;;;;;;9.90;9.00;;;;;;;30.75;100.00;99585.66;5096592;28;20191;-81
2023/08/22 08:55:39;;;;;;;9.57;8.68;;;;;;;30.88;100.00;99578.91;5096443;28;20321;-82
2023/08/22 08:58:10;;;;;;;9.27;8.40;;;;;;;30.99;100.00;99581.91;5090559;28;20196;-82
2023/08/22 09:00:37;;;;;;;9.50;8.60;;;;;;;31.07;100.00;99583.75;5088634;28;20188;-82
2023/08/22 09:03:05;;;;;;;8.80;8.10;;;;;;;31.23;100.00;99579.00;5080752;28;20188;-83
2023/08/22 09:05:34;;;;;;;8.90;8.00;;;;;;;31.34;100.00;99580.09;5083608;28;20683;-79
2023/08/22 09:08:19;;;;;;;9.15;8.25;;;;;;;31.43;100.00;99575.16;5097488;28;20185;-83
2023/08/22 09:10:52;;;;;;;9.30;8.50;;;;;;;31.47;100.00;99580.78;5093813;28;20289;-80
2023/08/22 09:13:28;;;;;;;10.07;8.48;;;;;;;31.47;100.00;99572.47;5093527;28;20659;-80
2023/08/22 09:16:16;;;;;;;9.82;8.88;;;;;;;31.52;100.00;99577.72;5092479;28;20192;-80
2023/08/22 09:18:43;;;;;;;10.10;8.48;;;;;;;31.67;100.00;99574.16;5093256;28;20197;-81
2023/08/22 09:21:12;;;;;;;10.48;8.68;;;;;;;31.77;100.00;99578.34;5094421;28;20284;-81
2023/08/22 09:23:41;;;;;;;8.95;8.23;;;;;;;31.75;100.00;99581.47;5094383;28;20196;-79
2023/08/22 09:26:12;;;;;;;9.90;8.88;;;;;;;31.74;100.00;99567.97;5098372;28;20195;-84
2023/08/22 09:28:40;;;;;;;9.43;8.13;;;;;;;31.75;100.00;99578.69;5098591;28;20275;-82
2023/08/22 09:31:07;;;;;;;10.00;8.38;;;;;;;31.95;100.00;99568.44;5093117;28;20247;-82
2023/08/22 09:34:09;;;;;;;10.80;8.68;;;;;;;32.09;100.00;99570.72;5092748;28;20232;-83
2023/08/22 09:36:44;;;;;;;9.10;8.27;;;;;;;32.21;100.00;99565.03;5087287;28;20198;-82
2023/08/22 09:39:19;;;;;;;8.95;8.05;;;;;;;32.24;100.00;99556.78;5091437;28;20192;-86
2023/08/22 09:41:54;;;;;;;9.65;7.95;;;;;;;32.29;100.00;99553.72;5084488;28;20200;-82
2023/08/22 09:44:26;;;;;;;13.10;8.30;;;;;;;32.30;98.38;99546.22;5087405;28;20200;-83
2023/08/22 09:46:55;;;;;;;9.25;8.45;;;;;;;32.16;99.10;99552.28;5087112;28;20192;-82
2023/08/22 09:49:22;;;;;;;11.23;8.80;;;;;;;32.26;100.00;99539.81;5092242;28;20700;-83
2023/08/22 09:51:51;;;;;;;15.60;9.20;;;;;;;32.48;98.20;99543.78;5082826;28;20230;-82
2023/08/22 09:54:19;;;;;;;8.85;7.90;;;;;;;32.49;97.39;99535.09;5092284;28;20518;-82
2023/08/22 09:56:47;;;;;;;10.80;8.38;;;;;;;32.67;98.09;99525.16;5067086;28;20236;-82
2023/08/22 09:59:17;;;;;;;11.90;8.02;;;;;;;32.77;95.45;99532.06;5087734;28;20201;-82
2023/08/22 10:01:48;;;;;;;9.98;9.05;;;;;;;32.82;95.83;99531.75;5089211;28;20219;-82
2023/08/22 10:04:17;;;;;;;8.95;8.15;;;;;;;32.94;94.83;99526.03;5090304;28;20193;-82
2023/08/22 10:06:47;;;;;;;9.00;7.90;;;;;;;33.05;94.76;99523.41;5080498;28;20573;-81
2023/08/22 10:09:17;;;;;;;10.00;8.07;;;;;;;33.06;93.83;99523.06;5086951;28;20500;-80
2023/08/22 10:11:49;;;;;;;10.10;8.68;;;;;;;33.17;92.16;99524.06;5088125;28;20216;-80
2023/08/22 10:14:31;;;;;;;9.52;8.57;;;;;;;33.34;93.77;99517.16;5091020;28;20659;-80
2023/08/22 10:16:59;;;;;;;9.15;8.15;;;;;;;33.44;93.00;99519.31;5099648;28;20189;-82
2023/08/22 10:19:29;;;;;;;11.32;9.02;;;;;;;33.55;91.78;99523.00;5086323;28;20269;-82
2023/08/22 10:22:11;;;;;;;9.30;8.40;;;;;;;33.63;90.27;99518.38;5095323;28;20193;-82
2023/08/22 10:24:41;;;;;;;8.70;8.00;;;;;;;33.78;89.34;99511.88;5083920;28;20238;-80
2023/08/22 10:27:16;;;;;;;9.50;8.52;;;;;;;33.87;89.22;99519.91;5098406;28;20605;-81
2023/08/22 10:29:45;;;;;;;11.23;8.68;;;;;;;33.65;88.60;99504.91;5098300;28;20540;-80
2023/08/22 10:32:13;;;;;;;10.88;8.50;;;;;;;33.70;90.04;99507.38;5088462;28;20220;-80
2023/08/22 10:34:44;;;;;;;9.10;8.30;;;;;;;33.83;90.97;99496.84;5092084;28;20236;-80
2023/08/22 10:37:15;;;;;;;9.32;8.52;;;;;;;33.99;91.73;99503.00;5095170;28;20196;-80
2023/08/22 10:39:47;;;;;;;8.98;8.27;;;;;;;34.03;90.39;99495.47;5097115;28;20196;-80
2023/08/22 10:42:20;;;;;;;9.82;8.57;;;;;;;34.15;86.98;99492.47;5091531;28;20255;-81
2023/08/22 10:44:50;;;;;;;9.23;8.40;;;;;;;34.29;87.62;99494.63;5094932;28;20686;-82
2023/08/22 10:47:20;;;;;;;10.15;8.77;;;;;;;34.36;85.66;99489.94;5090952;28;20253;-83
2023/08/22 10:49:49;;;;;;;8.75;7.82;;;;;;;34.43;83.50;99494.78;5097386;28;20489;-84
2023/08/22 10:52:39;;;;;;;8.57;7.78;;;;;;;34.46;80.67;99482.88;5091976;28;20244;-81
2023/08/22 10:55:11;;;;;;;9.88;7.78;;;;;;;34.53;80.50;99479.38;5094777;28;20204;-82
2023/08/22 10:57:45;;;;;;;8.90;8.18;;;;;;;34.66;79.96;99475.13;5092152;28;20192;-82
2023/08/22 11:00:21;;;;;;;8.25;7.55;;;;;;;34.81;79.51;99471.31;5090621;28;20192;-82
2023/08/22 11:02:56;;;;;;;9.07;8.18;;;;;;;34.74;79.08;99474.03;5087391;28;20249;-82
2023/08/22 11:05:26;;;;;;;7.95;7.35;;;;;;;34.86;77.73;99474.50;5088083;28;20659;-82
2023/08/22 11:07:54;;;;;;;8.23;7.57;;;;;;;34.96;76.57;99474.97;5098122;28;20275;-82
2023/08/22 11:10:24;;;;;;;8.43;7.80;;;;;;;35.04;76.50;99468.31;5101114;28;20607;-83
2023/08/22 11:12:56;;;;;;;8.68;7.85;;;;;;;35.07;76.06;99468.31;5095579;28;20270;-82
2023/08/22 11:15:24;;;;;;;8.07;7.38;;;;;;;35.03;76.36;99464.72;5096384;28;20200;-82
2023/08/22 11:17:52;;;;;;;8.93;7.78;;;;;;;35.21;77.02;99462.88;5096686;28;20192;-82
2023/08/22 11:20:21;;;;;;;8.93;8.13;;;;;;;35.38;75.87;99461.38;5101079;28;20638;-82
2023/08/22 11:22:49;;;;;;;11.05;7.78;;;;;;;35.53;74.15;99463.03;5095707;28;20206;-82
2023/08/22 11:25:24;;;;;;;8.02;7.35;;;;;;;35.52;73.10;99463.44;5094479;28;20284;-82